createdAt,value
2023-02-19T00:01:31.686Z,100942.31
2023-02-19T00:03:59.021Z,100955.19
2023-02-19T00:06:25.845Z,100950.19
2023-02-19T00:08:52.163Z,100935.06
2023-02-19T00:11:19.195Z,100949.44
2023-02-19T00:13:46.398Z,100947.97
2023-02-19T00:16:13.599Z,100949.44
2023-02-19T00:18:39.939Z,100947.97
2023-02-19T00:21:06.275Z,100944.97
2023-02-19T00:23:32.648Z,100942.09
2023-02-19T00:26:17.269Z,100929.13
2023-02-19T00:28:45.028Z,100935.63
2023-02-19T00:31:18.692Z,100932.00
2023-02-19T00:33:45.448Z,100920.50
2023-02-19T00:36:11.943Z,100928.38
2023-02-19T00:38:38.465Z,100921.88
2023-02-19T00:41:18.931Z,100917.53
2023-02-19T00:43:46.020Z,100931.91
2023-02-19T00:46:12.424Z,100921.78
2023-02-19T00:48:38.798Z,100920.31
2023-02-19T00:51:05.141Z,100908.06
2023-02-19T00:53:31.479Z,100907.31
2023-02-19T00:55:57.799Z,100906.56
2023-02-19T00:58:24.257Z,100906.56
2023-02-19T01:00:50.590Z,100905.84
2023-02-19T01:03:16.942Z,100900.72
2023-02-19T01:05:43.282Z,100907.22
2023-02-19T01:08:09.625Z,100908.59
2023-02-19T01:10:35.961Z,100902.13
2023-02-19T01:13:02.317Z,100901.47
2023-02-19T01:15:28.648Z,100881.34
2023-02-19T01:17:54.983Z,100874.22
2023-02-19T01:20:21.317Z,100851.34
2023-02-19T01:22:47.653Z,100836.34
2023-02-19T01:25:13.976Z,100855.16
2023-02-19T01:27:40.300Z,100866.03
2023-02-19T01:30:06.804Z,100866.03
2023-02-19T01:32:33.175Z,100863.22
2023-02-19T01:34:59.683Z,100863.22
2023-02-19T01:37:26.181Z,100855.38
2023-02-19T01:39:52.548Z,100853.84
2023-02-19T01:42:18.863Z,100854.59
2023-02-19T01:44:45.268Z,100848.84
2023-02-19T01:47:11.802Z,100838.75
2023-02-19T01:49:39.704Z,100839.50
2023-02-19T01:52:08.073Z,100838.75
2023-02-19T01:54:34.760Z,100834.41
2023-02-19T01:57:01.810Z,100841.63
2023-02-19T01:59:28.165Z,100835.88
2023-02-19T02:01:54.549Z,100831.53
2023-02-19T02:04:20.929Z,100837.28
2023-02-19T02:06:56.795Z,100820.69
2023-02-19T02:09:43.526Z,100828.56
2023-02-19T02:12:09.880Z,100838.56
2023-02-19T02:14:36.684Z,100833.53
2023-02-19T02:17:19.081Z,100828.47
2023-02-19T02:19:48.307Z,100830.59
2023-02-19T02:22:21.082Z,100829.84
2023-02-19T02:24:55.200Z,100829.84
2023-02-19T02:27:39.311Z,100828.34
2023-02-19T02:30:25.368Z,100827.63
2023-02-19T02:33:10.599Z,100824.00
2023-02-19T02:35:45.773Z,100813.91
2023-02-19T02:38:12.266Z,100816.75
2023-02-19T02:40:39.297Z,100805.19
2023-02-19T02:43:05.759Z,100813.78
2023-02-19T02:45:35.249Z,100813.78
2023-02-19T02:48:17.126Z,100822.41
2023-02-19T02:59:06.636Z,100812.22
2023-02-19T03:01:54.816Z,100817.88
2023-02-19T03:04:26.298Z,100816.47
2023-02-19T03:06:53.033Z,100825.75
2023-02-19T03:09:30.161Z,100824.97
2023-02-19T03:12:16.546Z,100829.25
2023-02-19T03:15:11.519Z,100835.75
2023-02-19T03:18:15.816Z,100832.72
2023-02-19T03:20:43.632Z,100833.47
2023-02-19T03:23:09.959Z,100832.00
2023-02-19T03:25:55.044Z,100832.72
2023-02-19T03:28:51.136Z,100833.41
2023-02-19T03:31:18.827Z,100842.00
2023-02-19T03:33:45.763Z,100842.75
2023-02-19T03:36:12.704Z,100842.84
2023-02-19T03:38:40.320Z,100843.72
2023-02-19T03:41:10.270Z,100846.69
2023-02-19T03:43:48.735Z,100843.16
2023-02-19T03:46:17.217Z,100844.00
2023-02-19T03:48:51.569Z,100857.00
2023-02-19T03:51:25.321Z,100856.34
2023-02-19T03:53:53.639Z,100864.31
2023-02-19T03:56:22.793Z,100861.53
2023-02-19T03:58:51.159Z,100871.56
2023-02-19T04:01:19.765Z,100869.44
2023-02-19T04:03:50.993Z,100867.28
2023-02-19T04:06:18.029Z,100872.31
2023-02-19T04:08:45.248Z,100866.66
2023-02-19T04:11:12.103Z,100861.53
2023-02-19T04:13:46.667Z,100876.00
2023-02-19T04:16:14.962Z,100878.16
2023-02-19T04:18:41.302Z,100881.88
2023-02-19T04:21:07.645Z,100884.75
2023-02-19T04:23:35.571Z,100891.22
2023-02-19T04:26:01.915Z,100891.22
2023-02-19T04:28:28.440Z,100904.22
2023-02-19T04:30:54.789Z,100899.22
2023-02-19T04:33:21.114Z,100910.69
2023-02-19T04:35:47.440Z,100904.94
2023-02-19T04:38:14.312Z,100907.81
2023-02-19T04:40:40.657Z,100912.19
2023-02-19T04:43:06.995Z,100902.19
2023-02-19T04:45:33.317Z,100912.28
2023-02-19T04:47:59.671Z,100910.91
2023-02-19T04:50:26.021Z,100905.16
2023-02-19T04:52:52.335Z,100914.50
2023-02-19T04:55:18.678Z,100913.00
2023-02-19T04:57:45.028Z,100915.16
2023-02-19T05:00:11.431Z,100911.63
2023-02-19T05:02:37.749Z,100918.13
2023-02-19T05:05:04.164Z,100911.63
2023-02-19T05:07:30.516Z,100914.50
2023-02-19T05:09:57.005Z,100918.13
2023-02-19T05:12:23.334Z,100919.63
2023-02-19T05:14:49.727Z,100915.34
2023-02-19T05:17:16.100Z,100921.09
2023-02-19T05:19:42.436Z,100909.59
2023-02-19T05:22:08.800Z,100911.09
2023-02-19T05:24:35.124Z,100922.56
2023-02-19T05:27:01.437Z,100925.44
2023-02-19T05:29:27.777Z,100932.59
2023-02-19T05:31:54.157Z,100926.84
2023-02-19T05:34:20.608Z,100924.09
2023-02-19T05:36:46.932Z,100928.31
2023-02-19T05:39:13.259Z,100927.69
2023-02-19T05:41:39.580Z,100935.56
2023-02-19T05:44:05.943Z,100929.84
2023-02-19T05:46:32.739Z,100930.56
2023-02-19T05:48:59.171Z,100926.31
2023-02-19T05:51:25.919Z,100931.31
2023-02-19T05:53:52.248Z,100936.31
2023-02-19T05:56:34.873Z,100937.06
2023-02-19T05:59:03.769Z,100944.94
2023-02-19T06:01:30.175Z,100944.31
2023-02-19T06:03:57.599Z,100942.81
2023-02-19T06:06:24.254Z,100945.78
2023-02-19T06:08:50.576Z,100950.78
2023-02-19T06:11:17.364Z,100948.03
2023-02-19T06:13:43.679Z,100941.53
2023-02-19T06:16:10.017Z,100947.28
2023-02-19T06:18:36.425Z,100954.50
2023-02-19T06:21:03.344Z,100941.53
2023-02-19T06:23:29.720Z,100944.41
2023-02-19T06:26:04.217Z,100943.00
2023-02-19T06:28:30.552Z,100953.75
2023-02-19T06:30:58.135Z,100956.00
2023-02-19T06:33:24.446Z,100958.13
2023-02-19T06:35:50.767Z,100984.75
2023-02-19T06:38:17.088Z,100987.69
2023-02-19T06:40:43.421Z,100997.72
2023-02-19T06:43:09.741Z,100998.47
2023-02-19T06:45:36.095Z,101004.22
2023-02-19T06:48:02.448Z,101014.97
2023-02-19T06:50:28.786Z,101014.97
2023-02-19T06:52:55.128Z,101031.47
2023-02-19T06:55:21.508Z,101028.59
2023-02-19T06:57:47.828Z,101032.97
2023-02-19T07:00:14.221Z,101038.72
2023-02-19T07:02:40.554Z,101051.72
2023-02-19T07:05:06.896Z,101042.44
2023-02-19T07:07:33.222Z,101041.69
2023-02-19T07:09:59.565Z,101049.69
2023-02-19T07:12:25.901Z,101045.41
2023-02-19T07:14:52.231Z,101055.44
2023-02-19T07:17:18.560Z,101059.69
2023-02-19T07:19:44.902Z,101060.44
2023-02-19T07:22:11.237Z,101063.31
2023-02-19T07:24:37.564Z,101066.19
2023-02-19T07:27:03.888Z,101065.44
2023-02-19T07:29:30.217Z,101071.19
2023-02-19T07:31:56.562Z,101076.94
2023-02-19T07:34:22.902Z,101081.31
2023-02-19T07:36:49.231Z,101086.31
2023-02-19T07:39:15.865Z,101084.19
2023-02-19T07:41:42.208Z,101091.41
2023-02-19T07:44:08.536Z,101095.78
2023-02-19T07:46:34.880Z,101095.13
2023-02-19T07:49:01.215Z,101101.53
2023-02-19T07:51:27.553Z,101110.16
2023-02-19T07:53:53.923Z,101113.03
2023-02-19T07:56:20.675Z,101126.00
2023-02-19T07:58:47.024Z,101127.31
2023-02-19T08:01:14.313Z,101141.91
2023-02-19T08:03:40.975Z,101132.41
2023-02-19T08:06:07.579Z,101142.41
2023-02-19T08:08:33.895Z,101145.72
2023-02-19T08:11:21.992Z,101153.41
2023-02-19T08:13:49.051Z,101153.69
2023-02-19T08:16:26.587Z,101161.69
2023-02-19T08:18:56.316Z,101163.59
2023-02-19T08:21:22.650Z,101171.06
2023-02-19T08:23:51.137Z,101175.31
2023-02-19T08:26:17.701Z,101179.56
2023-02-19T08:28:44.053Z,101196.19
2023-02-19T08:31:11.285Z,101200.03
2023-02-19T08:33:37.880Z,101215.75
2023-02-19T08:36:04.848Z,101209.94
2023-02-19T08:38:31.665Z,101210.44
2023-02-19T08:40:58.164Z,101214.91
2023-02-19T08:43:24.489Z,101225.78
2023-02-19T08:45:52.356Z,101222.78
2023-02-19T08:48:18.759Z,101222.69
2023-02-19T08:50:57.962Z,101234.19
2023-02-19T08:53:24.410Z,101236.31
2023-02-19T08:55:51.175Z,101231.31
2023-02-19T08:58:17.533Z,101238.75
2023-02-19T09:00:43.882Z,101240.06
2023-02-19T09:03:10.269Z,101233.47
2023-02-19T09:05:37.361Z,101241.34
2023-02-19T09:08:03.689Z,101243.88
2023-02-19T09:10:30.025Z,101242.25
2023-02-19T09:12:56.359Z,101247.78
2023-02-19T09:15:22.712Z,101250.41
2023-02-19T09:17:52.608Z,101248.31
2023-02-19T09:20:18.928Z,101254.28
2023-02-19T09:22:45.239Z,101257.28
2023-02-19T09:25:11.561Z,101257.50
2023-02-19T09:27:38.017Z,101267.72
2023-02-19T09:30:04.402Z,101270.09
2023-02-19T09:32:31.020Z,101275.09
2023-02-19T09:34:57.443Z,101281.69
2023-02-19T09:37:27.460Z,101273.19
2023-02-19T09:39:54.063Z,101281.91
2023-02-19T09:42:27.224Z,101289.91
2023-02-19T09:44:54.223Z,101292.88
2023-02-19T09:47:21.135Z,101301.63
2023-02-19T09:49:52.008Z,101295.88
2023-02-19T09:52:19.175Z,101297.47
2023-02-19T09:54:45.611Z,101306.19
2023-02-19T09:57:15.804Z,101307.59
2023-02-19T09:59:46.279Z,101319.09
2023-02-19T10:02:22.372Z,101317.72
2023-02-19T10:04:48.815Z,101327.84
2023-02-19T10:07:15.514Z,101329.31
2023-02-19T10:09:41.994Z,101326.66
2023-02-19T10:12:15.464Z,101330.28
2023-02-19T10:14:45.220Z,101338.19
2023-02-19T10:17:13.965Z,101340.31
2023-02-19T10:19:40.281Z,101346.81
2023-02-19T10:22:06.697Z,101354.81
2023-02-19T10:24:33.022Z,101354.03
2023-02-19T10:26:59.357Z,101360.56
2023-02-19T10:29:27.161Z,101356.28
2023-02-19T10:32:11.928Z,101368.53
2023-02-19T10:34:38.336Z,101370.78
2023-02-19T10:37:04.689Z,101376.53
2023-02-19T10:39:43.330Z,101375.91
2023-02-19T10:42:14.224Z,101386.00
2023-02-19T10:44:42.515Z,101390.47
2023-02-19T10:47:08.845Z,101392.81
2023-02-19T10:49:38.916Z,101381.88
2023-02-19T10:52:20.236Z,101394.25
2023-02-19T10:54:46.861Z,101395.59
2023-02-19T10:57:19.359Z,101414.50
2023-02-19T10:59:49.162Z,101410.44
2023-02-19T11:02:19.204Z,101420.66
2023-02-19T11:05:04.402Z,101418.34
2023-02-19T11:07:30.735Z,101424.53
2023-02-19T11:09:57.048Z,101421.59
2023-02-19T11:12:23.764Z,101434.50
2023-02-19T11:14:50.084Z,101445.41
2023-02-19T11:17:22.603Z,101447.66
2023-02-19T11:19:49.987Z,101450.34
2023-02-19T11:22:20.884Z,101457.44
2023-02-19T11:24:50.464Z,101451.78
2023-02-19T11:27:20.894Z,101447.91
2023-02-19T11:29:47.231Z,101452.31
2023-02-19T11:32:21.899Z,101444.53
2023-02-19T11:34:48.311Z,101455.38
2023-02-19T11:37:15.228Z,101462.66
2023-02-19T11:39:42.446Z,101464.13
2023-02-19T11:42:21.684Z,101454.25
2023-02-19T11:45:05.180Z,101451.38
2023-02-19T11:47:37.478Z,101455.13
2023-02-19T11:50:11.446Z,101447.09
2023-02-19T11:52:51.287Z,101445.88
2023-02-19T11:55:34.283Z,101448.75
2023-02-19T11:58:00.545Z,101445.94
2023-02-19T12:00:27.316Z,101457.44
2023-02-19T12:03:12.589Z,101471.84
2023-02-19T12:05:57.507Z,101474.72
2023-02-19T12:08:29.038Z,101466.84
2023-02-19T12:11:02.660Z,101473.34
2023-02-19T12:13:33.248Z,101477.69
2023-02-19T12:16:28.990Z,101474.81
2023-02-19T12:19:01.304Z,101480.06
2023-02-19T12:21:34.433Z,101480.81
2023-02-19T12:24:05.100Z,101480.06
2023-02-19T12:26:34.818Z,101490.97
2023-02-19T12:29:19.793Z,101492.31
2023-02-19T12:31:52.327Z,101497.44
2023-02-19T12:34:21.223Z,101509.59
2023-02-19T12:36:50.978Z,101498.06
2023-02-19T12:39:24.560Z,101500.94
2023-02-19T12:42:03.339Z,101500.84
2023-02-19T12:44:42.592Z,101508.09
2023-02-19T12:47:09.259Z,101499.78
2023-02-19T12:49:39.559Z,101506.22
2023-02-19T12:52:16.735Z,101507.69
2023-02-19T12:54:44.199Z,101522.53
2023-02-19T12:57:10.497Z,101522.28
2023-02-19T12:59:38.081Z,101525.41
2023-02-19T13:02:06.478Z,101518.66
2023-02-19T13:04:47.490Z,101516.34
2023-02-19T13:07:21.476Z,101518.44
2023-02-19T13:09:55.887Z,101520.84
2023-02-19T13:12:25.296Z,101535.09
2023-02-19T13:14:56.865Z,101530.34
2023-02-19T13:17:43.531Z,101530.94
2023-02-19T13:20:24.943Z,101545.75
2023-02-19T13:23:16.056Z,101527.50
2023-02-19T13:25:58.884Z,101532.22
2023-02-19T13:28:25.196Z,101540.44
2023-02-19T13:30:56.440Z,101540.44
2023-02-19T13:33:26.072Z,101554.72
2023-02-19T13:35:58.732Z,101544.72
2023-02-19T13:38:25.107Z,101553.47
2023-02-19T13:40:57.651Z,101542.91
2023-02-19T13:43:27.837Z,101542.59
2023-02-19T13:46:00.860Z,101539.50
2023-02-19T13:48:28.472Z,101554.13
2023-02-19T13:51:13.286Z,101553.63
2023-02-19T13:53:45.944Z,101549.22
2023-02-19T13:56:34.203Z,101552.97
2023-02-19T13:59:19.475Z,101555.13
2023-02-19T14:01:51.735Z,101553.97
2023-02-19T14:04:23.848Z,101562.72
2023-02-19T14:07:05.532Z,101576.38
2023-02-19T14:09:40.894Z,101578.72
2023-02-19T14:12:07.134Z,101580.34
2023-02-19T14:14:36.952Z,101588.44
2023-02-19T14:17:08.062Z,101577.97
2023-02-19T14:19:43.909Z,101582.63
2023-02-19T14:22:30.751Z,101580.53
2023-02-19T14:24:57.077Z,101581.16
2023-02-19T14:27:23.463Z,101582.56
2023-02-19T14:29:49.773Z,101582.75
2023-02-19T14:32:19.443Z,101591.28
2023-02-19T14:34:45.890Z,101598.56
2023-02-19T14:37:15.989Z,101579.56
2023-02-19T14:39:43.365Z,101585.09
2023-02-19T14:42:16.412Z,101574.94
2023-02-19T14:44:58.734Z,101582.09
2023-02-19T14:47:25.756Z,101584.13
2023-02-19T14:49:55.547Z,101594.91
2023-02-19T14:52:43.514Z,101599.13
2023-02-19T14:55:13.002Z,101602.75
2023-02-19T14:57:40.218Z,101604.91
2023-02-19T15:00:23.191Z,101607.66
2023-02-19T15:02:49.968Z,101610.41
2023-02-19T15:05:16.756Z,101610.31
2023-02-19T15:07:43.085Z,101613.19
2023-02-19T15:10:09.411Z,101616.06
2023-02-19T15:12:45.708Z,101615.97
2023-02-19T15:15:22.146Z,101605.81
2023-02-19T15:17:48.483Z,101615.09
2023-02-19T15:20:17.095Z,101612.97
2023-02-19T15:22:43.457Z,101607.22
2023-02-19T15:25:12.244Z,101611.47
2023-02-19T15:27:38.575Z,101618.63
2023-02-19T15:30:15.371Z,101622.84
2023-02-19T15:32:44.052Z,101612.00
2023-02-19T15:35:17.727Z,101625.75
2023-02-19T15:37:44.055Z,101625.63
2023-02-19T15:40:12.258Z,101627.00
2023-02-19T15:42:38.600Z,101624.00
2023-02-19T15:45:16.816Z,101627.50
2023-02-19T15:47:51.966Z,101632.53
2023-02-19T15:50:31.011Z,101639.69
2023-02-19T15:52:59.761Z,101646.81
2023-02-19T15:55:32.158Z,101644.56
2023-02-19T15:58:04.263Z,101647.44
2023-02-19T16:00:46.772Z,101649.69
2023-02-19T16:03:18.179Z,101658.31
2023-02-19T16:05:44.635Z,101661.84
2023-02-19T16:08:10.879Z,101673.34
2023-02-19T16:10:37.224Z,101678.34
2023-02-19T16:13:03.835Z,101669.59
2023-02-19T16:15:30.788Z,101672.38
2023-02-19T16:17:57.120Z,101668.09
2023-02-19T16:20:27.594Z,101671.59
2023-02-19T16:22:58.031Z,101670.84
2023-02-19T16:25:37.746Z,101679.50
2023-02-19T16:28:13.924Z,101686.00
2023-02-19T16:30:40.300Z,101680.88
2023-02-19T16:33:27.886Z,101683.88
2023-02-19T16:35:54.239Z,101686.00
2023-02-19T16:38:20.601Z,101692.38
2023-02-19T16:40:54.137Z,101690.88
2023-02-19T16:43:24.586Z,101696.63
2023-02-19T16:45:50.967Z,101713.91
2023-02-19T16:48:17.323Z,101705.91
2023-02-19T16:50:43.956Z,101705.16
2023-02-19T16:53:20.239Z,101708.03
2023-02-19T16:55:46.567Z,101708.66
2023-02-19T16:58:12.896Z,101707.88
2023-02-19T17:00:39.885Z,101713.03
2023-02-19T17:03:09.012Z,101718.16
2023-02-19T17:05:35.812Z,101719.53
2023-02-19T17:08:20.943Z,101718.28
2023-02-19T17:10:47.272Z,101705.91
2023-02-19T17:13:13.608Z,101715.13
2023-02-19T17:15:39.988Z,101718.63
2023-02-19T17:18:06.317Z,101723.66
2023-02-19T17:20:32.731Z,101723.66
2023-02-19T17:22:59.133Z,101711.41
2023-02-19T17:25:25.449Z,101716.41
2023-02-19T17:27:51.767Z,101723.66
2023-02-19T17:30:28.258Z,101729.41
2023-02-19T17:32:54.642Z,101729.41
2023-02-19T17:35:20.965Z,101738.16
2023-02-19T17:37:47.304Z,101732.00
2023-02-19T17:40:32.323Z,101748.44
2023-02-19T17:42:59.413Z,101740.56
2023-02-19T17:45:26.009Z,101741.69
2023-02-19T17:47:52.976Z,101745.44
2023-02-19T17:50:21.269Z,101746.16
2023-02-19T17:52:47.663Z,101742.66
2023-02-19T17:55:15.641Z,101743.41
2023-02-19T17:57:42.273Z,101752.81
2023-02-19T18:00:08.774Z,101744.94
2023-02-19T18:02:38.863Z,101750.69
2023-02-19T18:05:05.216Z,101756.69
2023-02-19T18:07:31.531Z,101746.66
2023-02-19T18:09:57.856Z,101751.81
2023-02-19T18:12:25.751Z,101756.19
2023-02-19T18:14:54.506Z,101754.69
2023-02-19T18:17:20.838Z,101758.31
2023-02-19T18:19:47.417Z,101763.31
2023-02-19T18:22:13.812Z,101777.69
2023-02-19T18:24:44.851Z,101766.94
2023-02-19T18:27:11.181Z,101782.69
2023-02-19T18:29:37.508Z,101778.44
2023-02-19T18:32:03.962Z,101786.50
2023-02-19T18:34:30.346Z,101771.44
2023-02-19T18:36:56.678Z,101775.72
2023-02-19T18:39:22.987Z,101774.22
2023-02-19T18:41:49.517Z,101781.19
2023-02-19T18:44:20.288Z,101782.84
2023-02-19T18:46:46.631Z,101784.97
2023-02-19T18:49:12.987Z,101778.59
2023-02-19T18:51:39.312Z,101786.22
2023-02-19T18:54:05.663Z,101782.34
2023-02-19T18:56:32.000Z,101795.88
2023-02-19T18:59:00.284Z,101791.09
2023-02-19T19:01:26.696Z,101794.72
2023-02-19T19:03:53.039Z,101784.09
2023-02-19T19:06:19.357Z,101795.47
2023-02-19T19:08:45.676Z,101790.59
2023-02-19T19:11:12.304Z,101785.72
2023-02-19T19:13:38.767Z,101780.47
2023-02-19T19:16:05.145Z,101778.97
2023-02-19T19:18:31.685Z,101775.72
2023-02-19T19:21:03.079Z,101777.34
2023-02-19T19:23:29.422Z,101783.34
2023-02-19T19:25:55.784Z,101782.09
2023-02-19T19:28:22.110Z,101774.94
2023-02-19T19:30:48.577Z,101777.19
2023-02-19T19:33:14.930Z,101777.94
2023-02-19T19:35:41.252Z,101766.44
2023-02-19T19:38:07.578Z,101770.81
2023-02-19T19:40:33.905Z,101766.56
2023-02-19T19:43:00.248Z,101763.69
2023-02-19T19:45:26.603Z,101777.44
2023-02-19T19:47:53.078Z,101771.69
2023-02-19T19:50:19.457Z,101769.56
2023-02-19T19:52:45.793Z,101767.44
2023-02-19T19:55:12.105Z,101769.56
2023-02-19T19:57:40.776Z,101770.94
2023-02-19T20:00:07.358Z,101775.94
2023-02-19T20:02:38.638Z,101780.19
2023-02-19T20:05:05.087Z,101773.72
2023-02-19T20:07:31.411Z,101766.44
2023-02-19T20:09:57.746Z,101772.97
2023-02-19T20:12:24.081Z,101772.31
2023-02-19T20:14:50.401Z,101775.84
2023-02-19T20:17:16.784Z,101793.84
2023-02-19T20:19:43.164Z,101790.31
2023-02-19T20:22:09.496Z,101788.22
2023-02-19T20:24:35.824Z,101791.22
2023-02-19T20:27:02.540Z,101791.97
2023-02-19T20:29:29.391Z,101794.09
2023-02-19T20:31:55.845Z,101789.22
2023-02-19T20:34:22.256Z,101788.09
2023-02-19T20:36:48.629Z,101794.84
2023-02-19T20:39:15.600Z,101790.97
2023-02-19T20:41:48.601Z,101807.50
2023-02-19T20:44:14.977Z,101799.84
2023-02-19T20:46:45.064Z,101798.47
2023-02-19T20:49:14.353Z,101799.94
2023-02-19T20:52:09.944Z,101800.72
2023-02-19T20:54:36.299Z,101795.72
2023-02-19T20:57:03.379Z,101791.47
2023-02-19T20:59:31.167Z,101785.72
2023-02-19T21:01:57.933Z,101800.09
2023-02-19T21:04:24.351Z,101795.59
2023-02-19T21:06:52.208Z,101800.59
2023-02-19T21:09:18.980Z,101791.97
2023-02-19T21:11:45.296Z,101791.22
2023-02-19T21:14:11.639Z,101791.22
2023-02-19T21:16:38.028Z,101792.72
2023-02-19T21:19:04.370Z,101791.97
2023-02-19T21:21:31.756Z,101784.06
2023-02-19T21:23:58.399Z,101778.19
2023-02-19T21:26:24.894Z,101768.19
2023-02-19T21:28:51.466Z,101777.56
2023-02-19T21:31:17.923Z,101770.31
2023-02-19T21:33:44.322Z,101766.69
2023-02-19T21:36:11.128Z,101758.78
2023-02-19T21:38:37.602Z,101753.69
2023-02-19T21:41:03.911Z,101746.41
2023-02-19T21:43:30.234Z,101753.69
2023-02-19T21:45:56.590Z,101746.41
2023-02-19T21:48:22.943Z,101755.16
2023-02-19T21:50:49.295Z,101743.66
2023-02-19T21:53:15.610Z,101748.06
2023-02-19T21:55:57.490Z,101745.06
2023-02-19T21:58:24.858Z,101742.19
2023-02-19T22:00:51.241Z,101739.19
2023-02-19T22:03:17.617Z,101734.03
2023-02-19T22:05:43.934Z,101736.19
2023-02-19T22:08:10.298Z,101723.81
2023-02-19T22:10:36.616Z,101727.41
2023-02-19T22:13:02.944Z,101718.66
2023-02-19T22:15:29.300Z,101715.03
2023-02-19T22:17:55.627Z,101708.56
2023-02-19T22:20:21.949Z,101699.91
2023-02-19T22:22:48.540Z,101709.16
2023-02-19T22:25:14.850Z,101698.28
2023-02-19T22:27:41.169Z,101701.16
2023-02-19T22:30:07.612Z,101705.41
2023-02-19T22:32:34.116Z,101705.31
2023-02-19T22:35:00.531Z,101708.19
2023-02-19T22:37:26.844Z,101708.19
2023-02-19T22:39:53.165Z,101708.06
2023-02-19T22:42:19.479Z,101710.94
2023-02-19T22:44:45.803Z,101718.19
2023-02-19T22:47:12.124Z,101723.94
2023-02-19T22:49:38.781Z,101726.81
2023-02-19T22:52:08.215Z,101729.69
2023-02-19T22:54:35.021Z,101725.44
2023-02-19T22:57:01.339Z,101725.44
2023-02-19T22:59:27.683Z,101729.06
2023-02-19T23:01:54.035Z,101729.81
2023-02-19T23:04:20.582Z,101722.69
2023-02-19T23:06:47.064Z,101723.44
2023-02-19T23:09:31.516Z,101724.16
2023-02-19T23:12:04.661Z,101729.94
2023-02-19T23:14:30.995Z,101719.81
2023-02-19T23:16:57.473Z,101722.69
2023-02-19T23:19:23.866Z,101713.19
2023-02-19T23:21:50.434Z,101708.06
2023-02-19T23:24:16.756Z,101721.06
2023-02-19T23:26:43.555Z,101715.19
2023-02-19T23:29:09.922Z,101715.94
2023-02-19T23:31:36.303Z,101715.19
2023-02-19T23:34:02.813Z,101712.31
2023-02-19T23:36:29.133Z,101710.19
2023-02-19T23:38:55.447Z,101708.06
2023-02-19T23:41:21.773Z,101705.19
2023-02-19T23:43:48.140Z,101702.28
2023-02-19T23:46:15.665Z,101695.94
2023-02-19T23:48:42.172Z,101685.16
2023-02-19T23:51:08.486Z,101685.16
2023-02-19T23:53:34.865Z,101690.16
2023-02-19T23:56:01.246Z,101690.16
2023-02-19T23:58:27.577Z,101698.81
